Signal Hill, California
Current Conditions -  °F | °C
As of 4:53 PM on Friday 24 Oct 2014 (Local Time) from KLGB Reporting Station
Clear Clear  
Wind Chill: 80°   Ceiling: Unl
Heat Index: 80°   Visibility: 10mi
Dew Point: 48°   Wind: 6mph
Humidity: 32%   Direction: 190°S
Pressure: 29.92"   Gusts: NA
Location:  33.8°N, 118.16°W
Report Text: KLGB 242353Z 19005KT 10SM CLR 27/09 A2992 RMK AO2 SLP131 T02670089 10289 20250 56005
Loading
Personal Weather Stations






























Interactive Weather Map New forecast layout! Learn more

10-Day Weather Forecast

Advertisements
Track Severe Weather on mobile